createdAt,value
2018-12-12T00:01:57.297Z,7.73
2018-12-12T00:04:27.949Z,3.40
2018-12-12T00:06:58.696Z,8.60
2018-12-12T00:09:29.300Z,7.23
2018-12-12T00:12:00.103Z,6.10
2018-12-12T00:14:30.394Z,2.43
2018-12-12T00:17:01.432Z,6.70
2018-12-12T00:19:32.144Z,2.17
2018-12-12T00:22:02.922Z,1.60
2018-12-12T00:24:33.451Z,11.93
2018-12-12T00:27:04.204Z,2.73
2018-12-12T00:29:36.249Z,1.03
2018-12-12T00:32:07.084Z,10.87
2018-12-12T00:34:37.604Z,2.90
2018-12-12T00:37:07.969Z,3.73
2018-12-12T00:39:40.413Z,2.13
2018-12-12T00:42:11.715Z,3.93
2018-12-12T00:44:42.552Z,3.23
2018-12-12T00:47:13.738Z,3.23
2018-12-12T00:49:45.747Z,2.60
2018-12-12T00:52:16.867Z,3.80
2018-12-12T00:54:47.591Z,4.20
2018-12-12T00:57:18.829Z,4.07
2018-12-12T00:59:50.091Z,3.87
2018-12-12T01:02:20.630Z,3.93
2018-12-12T01:04:51.179Z,2.00
2018-12-12T01:07:22.585Z,3.07
2018-12-12T01:09:54.108Z,3.93
2018-12-12T01:12:24.823Z,2.27
2018-12-12T01:14:55.723Z,5.67
2018-12-12T01:17:26.644Z,3.77
2018-12-12T01:19:57.642Z,3.23
2018-12-12T01:22:28.281Z,3.23
2018-12-12T01:24:59.014Z,1.23
2018-12-12T01:27:29.731Z,0.70
2018-12-12T01:30:00.401Z,3.80
2018-12-12T01:32:31.112Z,1.80
2018-12-12T01:35:01.681Z,2.83
2018-12-12T01:37:33.319Z,1.27
2018-12-12T01:40:05.686Z,2.33
2018-12-12T01:42:36.291Z,14.13
2018-12-12T01:45:07.438Z,1.90
2018-12-12T01:47:38.336Z,1.20
2018-12-12T01:50:09.580Z,2.10
2018-12-12T01:52:40.154Z,5.70
2018-12-12T01:55:10.916Z,1.03
2018-12-12T01:57:41.604Z,0.60
2018-12-12T02:00:12.744Z,0.70
2018-12-12T02:02:43.376Z,2.00
2018-12-12T02:05:13.962Z,0.90
2018-12-12T02:07:44.999Z,1.70
2018-12-12T02:10:16.179Z,14.00
2018-12-12T02:12:53.071Z,14.23
2018-12-12T02:15:24.800Z,5.33
2018-12-12T02:17:55.049Z,2.20
2018-12-12T02:20:27.079Z,5.00
2018-12-12T02:22:58.044Z,2.27
2018-12-12T02:25:29.459Z,7.17
2018-12-12T02:27:59.366Z,6.00
2018-12-12T02:30:30.253Z,7.00
2018-12-12T02:33:00.800Z,2.83
2018-12-12T02:35:31.395Z,6.50
2018-12-12T02:38:01.991Z,3.73
2018-12-12T02:40:33.048Z,4.93
2018-12-12T02:43:03.918Z,3.23
2018-12-12T02:45:34.986Z,2.47
2018-12-12T02:48:06.055Z,4.13
2018-12-12T02:50:37.079Z,2.73
2018-12-12T02:53:08.099Z,2.40
2018-12-12T02:55:39.090Z,2.07
2018-12-12T02:58:09.790Z,3.50
2018-12-12T03:00:40.653Z,5.40
2018-12-12T03:03:11.054Z,3.77
2018-12-12T03:05:41.990Z,1.40
2018-12-12T03:08:12.875Z,1.60
2018-12-12T03:10:44.342Z,3.57
2018-12-12T03:13:14.929Z,8.23
2018-12-12T03:15:45.449Z,3.23
2018-12-12T03:18:16.341Z,8.83
2018-12-12T03:20:47.869Z,4.93
2018-12-12T03:23:18.660Z,9.53
2018-12-12T03:25:49.217Z,9.83
2018-12-12T03:28:20.025Z,10.93
2018-12-12T03:30:51.364Z,6.37
2018-12-12T03:33:22.091Z,20.80
2018-12-12T03:35:52.579Z,3.90
2018-12-12T03:38:23.523Z,3.90
2018-12-12T03:40:56.458Z,6.83
2018-12-12T03:43:26.962Z,3.30
2018-12-12T03:45:57.899Z,3.47
2018-12-12T03:48:28.304Z,2.83
2018-12-12T03:50:59.713Z,5.07
2018-12-12T03:53:30.608Z,7.53
2018-12-12T03:56:01.426Z,5.43
2018-12-12T03:58:33.300Z,3.70
2018-12-12T04:01:04.472Z,8.73
2018-12-12T04:03:35.289Z,3.40
2018-12-12T04:06:06.022Z,3.60
2018-12-12T04:08:36.706Z,3.53
2018-12-12T04:11:07.773Z,4.77
2018-12-12T04:13:38.525Z,9.60
2018-12-12T04:16:09.616Z,5.60
2018-12-12T04:18:41.044Z,7.33
2018-12-12T04:21:12.295Z,4.00
2018-12-12T04:23:42.765Z,5.13
2018-12-12T04:26:13.956Z,8.40
2018-12-12T04:28:44.604Z,5.23
2018-12-12T04:31:15.689Z,6.00
2018-12-12T04:33:46.504Z,4.17
2018-12-12T04:36:17.168Z,9.50
2018-12-12T04:38:47.712Z,7.20
2018-12-12T04:41:19.385Z,24.77
2018-12-12T04:43:49.970Z,21.57
2018-12-12T04:46:20.500Z,23.47
2018-12-12T04:48:51.478Z,12.27
2018-12-12T04:51:22.658Z,10.73
2018-12-12T04:53:53.687Z,15.77
2018-12-12T04:56:24.572Z,11.17
2018-12-12T04:58:55.907Z,8.87
2018-12-12T05:01:27.065Z,6.80
2018-12-12T05:03:58.272Z,7.37
2018-12-12T05:06:29.256Z,18.97
2018-12-12T05:08:59.680Z,4.40
2018-12-12T05:11:30.607Z,5.37
2018-12-12T05:14:01.849Z,5.73
2018-12-12T05:16:32.323Z,7.40
2018-12-12T05:19:03.220Z,4.90
2018-12-12T05:21:34.374Z,3.37
2018-12-12T05:24:05.499Z,5.57
2018-12-12T05:26:36.407Z,9.10
2018-12-12T05:29:07.139Z,10.47
2018-12-12T05:31:37.669Z,19.73
2018-12-12T05:34:08.685Z,5.80
2018-12-12T05:36:39.277Z,9.13
2018-12-12T05:39:10.140Z,11.33
2018-12-12T05:41:41.392Z,38.17
2018-12-12T05:44:12.014Z,33.87
2018-12-12T05:46:43.075Z,26.03
2018-12-12T05:49:13.055Z,28.00
2018-12-12T05:51:43.498Z,59.90
2018-12-12T05:54:14.470Z,66.90
2018-12-12T05:56:45.305Z,50.83
2018-12-12T05:59:15.963Z,47.77
2018-12-12T06:01:47.048Z,60.50
2018-12-12T06:04:17.430Z,82.77
2018-12-12T06:06:47.885Z,59.57
2018-12-12T06:09:18.389Z,70.83
2018-12-12T06:11:49.684Z,50.13
2018-12-12T06:14:20.224Z,38.27
2018-12-12T06:16:50.171Z,27.37
2018-12-12T06:19:19.898Z,50.47
2018-12-12T06:21:51.548Z,45.57
2018-12-12T06:24:22.288Z,44.43
2018-12-12T06:26:53.125Z,50.33
2018-12-12T06:29:23.883Z,65.43
2018-12-12T06:31:54.558Z,79.00
2018-12-12T06:34:25.165Z,84.07
2018-12-12T06:36:56.225Z,47.93
2018-12-12T06:39:26.858Z,52.20
2018-12-12T06:41:58.370Z,49.63
2018-12-12T06:44:29.014Z,29.20
2018-12-12T06:46:59.676Z,26.37
2018-12-12T06:49:30.374Z,31.33
2018-12-12T06:52:01.371Z,27.03
2018-12-12T06:54:31.809Z,25.03
2018-12-12T06:57:02.687Z,24.73
2018-12-12T06:59:33.196Z,32.60
2018-12-12T07:02:04.221Z,36.73
2018-12-12T07:04:34.679Z,29.60
2018-12-12T07:07:05.808Z,22.33
2018-12-12T07:09:36.230Z,19.90
2018-12-12T07:12:07.648Z,16.77
2018-12-12T07:14:38.161Z,17.03
2018-12-12T07:17:08.688Z,10.27
2018-12-12T07:19:39.581Z,17.87
2018-12-12T07:22:10.750Z,18.07
2018-12-12T07:24:41.764Z,25.60
2018-12-12T07:27:12.609Z,31.50
2018-12-12T07:29:43.109Z,17.10
2018-12-12T07:32:14.302Z,18.40
2018-12-12T07:34:44.240Z,22.17
2018-12-12T07:37:14.067Z,22.93
2018-12-12T07:39:44.025Z,33.63
2018-12-12T07:42:14.457Z,19.27
2018-12-12T07:44:44.419Z,37.27
2018-12-12T07:47:14.477Z,11.50
2018-12-12T07:49:44.526Z,9.10
2018-12-12T07:52:14.644Z,18.47
2018-12-12T07:54:44.375Z,32.77
2018-12-12T07:57:14.223Z,48.67
2018-12-12T07:59:44.144Z,12.37
2018-12-12T08:02:14.115Z,12.00
2018-12-12T08:04:44.067Z,17.80
2018-12-12T08:07:14.045Z,7.83
2018-12-12T08:09:43.976Z,19.10
2018-12-12T08:12:14.426Z,10.03
2018-12-12T08:14:44.273Z,13.47
2018-12-12T08:17:14.286Z,22.73
2018-12-12T08:19:44.848Z,25.60
2018-12-12T08:22:16.411Z,33.80
2018-12-12T08:24:47.205Z,28.63
2018-12-12T08:27:18.167Z,21.57
2018-12-12T08:29:48.615Z,26.17
2018-12-12T08:32:20.590Z,20.63
2018-12-12T08:34:51.002Z,18.57
2018-12-12T08:37:21.882Z,23.67
2018-12-12T08:39:52.482Z,19.27
2018-12-12T08:42:23.709Z,12.93
2018-12-12T08:44:54.366Z,15.70
2018-12-12T08:47:25.204Z,26.93
2018-12-12T08:49:55.899Z,12.83
2018-12-12T08:52:26.530Z,9.47
2018-12-12T08:54:57.052Z,11.47
2018-12-12T08:57:27.857Z,12.30
2018-12-12T08:59:58.426Z,9.03
2018-12-12T09:02:29.143Z,21.93
2018-12-12T09:04:59.775Z,8.30
2018-12-12T09:07:30.541Z,4.23
2018-12-12T09:10:01.140Z,4.23
2018-12-12T09:12:32.893Z,5.03
2018-12-12T09:15:03.447Z,6.20
2018-12-12T09:17:34.042Z,13.07
2018-12-12T09:20:04.584Z,10.07
2018-12-12T09:22:35.200Z,7.07
2018-12-12T09:25:05.934Z,3.23
2018-12-12T09:27:36.506Z,13.43
2018-12-12T09:30:07.106Z,7.30
2018-12-12T09:32:37.960Z,13.83
2018-12-12T09:35:08.676Z,13.00
2018-12-12T09:37:39.227Z,9.83
2018-12-12T09:40:10.028Z,16.63
2018-12-12T09:42:40.700Z,9.70
2018-12-12T09:45:11.906Z,14.90
2018-12-12T09:47:43.109Z,14.23
2018-12-12T09:50:13.860Z,11.43
2018-12-12T09:52:45.665Z,13.20
2018-12-12T09:55:16.553Z,18.00
2018-12-12T09:57:47.158Z,11.80
2018-12-12T10:00:17.774Z,15.10
2018-12-12T10:02:49.816Z,12.57
2018-12-12T10:05:20.926Z,12.80
2018-12-12T10:07:51.484Z,15.87
2018-12-12T10:10:21.923Z,14.60
2018-12-12T10:12:53.208Z,13.10
2018-12-12T10:15:24.340Z,21.33
2018-12-12T10:17:55.087Z,8.00
2018-12-12T10:20:25.574Z,20.00
2018-12-12T10:22:56.650Z,27.63
2018-12-12T10:25:27.118Z,11.37
2018-12-12T10:27:57.688Z,7.33
2018-12-12T10:30:28.591Z,19.63
2018-12-12T10:33:00.268Z,11.20
2018-12-12T10:35:31.500Z,10.80
2018-12-12T10:38:02.351Z,11.97
2018-12-12T10:40:33.729Z,11.90
2018-12-12T10:43:04.813Z,9.63
2018-12-12T10:45:35.403Z,7.90
2018-12-12T10:48:06.134Z,12.03
2018-12-12T10:50:36.540Z,12.10
2018-12-12T10:53:09.658Z,15.10
2018-12-12T10:55:40.700Z,17.83
2018-12-12T10:58:11.477Z,16.00
2018-12-12T11:00:46.355Z,23.53
2018-12-12T11:03:21.800Z,8.40
2018-12-12T11:05:52.318Z,11.93
2018-12-12T11:08:22.840Z,20.63
2018-12-12T11:10:53.485Z,45.37
2018-12-12T11:13:23.908Z,19.13
2018-12-12T11:15:54.644Z,16.60
2018-12-12T11:18:24.959Z,9.53
2018-12-12T11:20:56.038Z,14.70
2018-12-12T11:23:26.278Z,16.60
2018-12-12T11:25:56.808Z,16.80
2018-12-12T11:28:27.542Z,7.43
2018-12-12T11:30:58.272Z,3.70
2018-12-12T11:33:28.932Z,12.50
2018-12-12T11:35:59.240Z,10.40
2018-12-12T11:38:29.792Z,20.13
2018-12-12T11:41:01.349Z,7.37
2018-12-12T11:43:32.099Z,5.43
2018-12-12T11:46:02.523Z,5.57
2018-12-12T11:48:32.883Z,12.30
2018-12-12T11:51:04.496Z,7.07
2018-12-12T11:53:34.872Z,3.70
2018-12-12T11:56:05.199Z,4.10
2018-12-12T11:58:35.491Z,3.87
2018-12-12T12:01:07.216Z,3.27
2018-12-12T12:03:37.714Z,2.50
2018-12-12T12:06:08.413Z,2.10
2018-12-12T12:08:39.003Z,1.57
2018-12-12T12:11:10.651Z,2.33
2018-12-12T12:13:41.364Z,2.50
2018-12-12T12:16:11.874Z,6.53
2018-12-12T12:18:42.107Z,3.57
2018-12-12T12:21:13.050Z,3.30
2018-12-12T12:23:43.381Z,4.40
2018-12-12T12:26:14.388Z,5.90
2018-12-12T12:28:44.873Z,5.67
2018-12-12T12:31:16.469Z,7.50
2018-12-12T12:33:46.572Z,7.67
2018-12-12T12:36:16.389Z,8.30
2018-12-12T12:38:46.311Z,14.33
2018-12-12T12:41:17.492Z,10.33
2018-12-12T12:43:47.453Z,9.90
2018-12-12T12:46:17.282Z,8.50
2018-12-12T12:48:47.251Z,11.77
2018-12-12T12:51:17.062Z,13.60
2018-12-12T12:53:47.303Z,24.70
2018-12-12T12:56:18.183Z,69.00
2018-12-12T12:58:48.694Z,62.57
2018-12-12T13:01:19.986Z,80.33
2018-12-12T13:03:50.667Z,90.37
2018-12-12T13:06:20.544Z,74.90
2018-12-12T13:08:50.305Z,68.23
2018-12-12T13:11:20.197Z,45.67
2018-12-12T13:13:50.181Z,69.53
2018-12-12T13:16:20.177Z,64.30
2018-12-12T13:18:50.100Z,59.93
2018-12-12T13:21:20.066Z,35.17
2018-12-12T13:23:49.966Z,54.70
2018-12-12T13:26:19.950Z,68.23
2018-12-12T13:28:49.857Z,25.63
2018-12-12T13:31:19.803Z,24.90
2018-12-12T13:33:49.641Z,19.00
2018-12-12T13:36:19.594Z,11.80
2018-12-12T13:38:50.627Z,10.53
2018-12-12T13:41:20.847Z,2.00
2018-12-12T13:43:50.682Z,6.40
2018-12-12T13:46:20.604Z,7.43
2018-12-12T13:48:50.591Z,9.17
2018-12-12T13:51:20.654Z,18.63
2018-12-12T13:53:50.545Z,30.73
2018-12-12T13:56:20.408Z,28.33
2018-12-12T13:58:50.354Z,25.10
2018-12-12T14:01:20.384Z,30.33
2018-12-12T14:03:50.259Z,44.47
2018-12-12T14:06:20.119Z,46.90
2018-12-12T14:08:50.079Z,43.53
2018-12-12T14:11:20.016Z,23.17
2018-12-12T14:13:49.809Z,28.87
2018-12-12T14:16:20.202Z,38.53
2018-12-12T14:18:50.960Z,35.60
2018-12-12T14:21:21.826Z,21.70
2018-12-12T14:23:52.576Z,17.00
2018-12-12T14:26:23.173Z,25.63
2018-12-12T14:28:53.852Z,17.03
2018-12-12T14:31:25.294Z,15.13
2018-12-12T14:33:56.326Z,10.80
2018-12-12T14:36:26.960Z,15.03
2018-12-12T14:38:57.803Z,8.47
2018-12-12T14:41:29.057Z,39.20
2018-12-12T14:44:00.292Z,36.87
2018-12-12T14:46:31.093Z,34.73
2018-12-12T14:49:01.889Z,24.37
2018-12-12T14:51:34.358Z,23.87
2018-12-12T14:54:04.641Z,37.70
2018-12-12T14:56:35.144Z,33.73
2018-12-12T14:59:05.894Z,66.63
2018-12-12T15:01:37.907Z,51.23
2018-12-12T15:04:09.021Z,29.23
2018-12-12T15:06:40.016Z,34.63
2018-12-12T15:09:09.984Z,32.60
2018-12-12T15:11:40.331Z,21.53
2018-12-12T15:14:11.202Z,28.60
2018-12-12T15:16:41.829Z,24.80
2018-12-12T15:19:12.531Z,21.43
2018-12-12T15:21:44.044Z,31.07
2018-12-12T15:24:15.431Z,98.60
2018-12-12T15:26:46.203Z,77.83
2018-12-12T15:29:16.431Z,39.90
2018-12-12T15:31:48.227Z,10.83
2018-12-12T15:34:19.332Z,28.30
2018-12-12T15:36:50.108Z,26.50
2018-12-12T15:39:20.764Z,41.13
2018-12-12T15:41:53.083Z,39.67
2018-12-12T15:44:23.726Z,17.40
2018-12-12T15:46:54.751Z,10.27
2018-12-12T15:49:26.243Z,23.57
2018-12-12T15:51:57.558Z,96.67
2018-12-12T15:54:28.034Z,58.00
2018-12-12T15:56:59.832Z,29.40
2018-12-12T15:59:31.125Z,51.30
2018-12-12T16:02:02.061Z,56.53
2018-12-12T16:04:32.603Z,96.40
2018-12-12T16:07:02.982Z,54.00
2018-12-12T16:09:33.518Z,76.60
2018-12-12T16:12:05.706Z,53.53
2018-12-12T16:14:36.095Z,64.33
2018-12-12T16:17:06.639Z,79.50
2018-12-12T16:19:37.552Z,84.97
2018-12-12T16:22:09.135Z,90.20
2018-12-12T16:24:40.326Z,76.03
2018-12-12T16:27:10.887Z,78.10
2018-12-12T16:29:41.134Z,58.53
2018-12-12T16:32:12.870Z,65.60
2018-12-12T16:34:44.175Z,260.27
2018-12-12T16:37:14.961Z,261.57
2018-12-12T16:39:45.273Z,208.83
2018-12-12T16:42:16.123Z,145.93
2018-12-12T16:44:47.440Z,200.23
2018-12-12T16:47:17.556Z,205.80
2018-12-12T16:49:47.991Z,130.83
2018-12-12T16:52:20.239Z,124.80
2018-12-12T16:54:49.810Z,90.73
2018-12-12T16:57:20.871Z,83.03
2018-12-12T16:59:51.690Z,82.93
2018-12-12T17:02:23.190Z,65.20
2018-12-12T17:04:53.734Z,52.53
2018-12-12T17:07:24.698Z,71.87
2018-12-12T17:09:55.075Z,61.90
2018-12-12T17:12:26.334Z,90.40
2018-12-12T17:14:57.291Z,83.67
2018-12-12T17:17:28.160Z,105.40
2018-12-12T17:19:59.215Z,138.63
2018-12-12T17:22:30.734Z,126.50
2018-12-12T17:25:01.442Z,114.63
2018-12-12T17:27:32.706Z,83.93
2018-12-12T17:30:03.475Z,77.30
2018-12-12T17:32:34.319Z,80.30
2018-12-12T17:35:08.875Z,81.87
2018-12-12T17:37:37.893Z,61.17
2018-12-12T17:40:08.560Z,58.93
2018-12-12T17:42:39.494Z,54.43
2018-12-12T17:45:10.021Z,58.90
2018-12-12T17:47:40.305Z,53.87
2018-12-12T17:50:10.849Z,76.13
2018-12-12T17:52:41.985Z,162.47
2018-12-12T17:55:12.178Z,117.30
2018-12-12T17:57:42.831Z,100.10
2018-12-12T18:00:13.800Z,106.57
2018-12-12T18:02:44.596Z,109.37
2018-12-12T18:05:15.329Z,113.20
2018-12-12T18:07:45.260Z,113.80
2018-12-12T18:10:15.912Z,87.87
2018-12-12T18:12:49.991Z,109.23
2018-12-12T18:15:20.594Z,88.53
2018-12-12T18:17:51.258Z,79.80
2018-12-12T18:20:21.779Z,91.07
2018-12-12T18:22:53.047Z,97.63
2018-12-12T18:25:23.642Z,93.10
2018-12-12T18:27:54.174Z,92.80
2018-12-12T18:30:24.791Z,78.47
2018-12-12T18:32:56.445Z,69.67
2018-12-12T18:35:27.137Z,65.60
2018-12-12T18:37:57.272Z,80.40
2018-12-12T18:40:27.744Z,75.90
2018-12-12T18:42:59.382Z,93.00
2018-12-12T18:45:30.274Z,81.17
2018-12-12T18:48:00.905Z,93.83
2018-12-12T18:50:31.987Z,92.90
2018-12-12T18:53:03.499Z,70.67
2018-12-12T18:55:34.230Z,80.20
2018-12-12T18:58:05.372Z,95.23
2018-12-12T19:00:36.310Z,82.57
2018-12-12T19:03:07.849Z,68.03
2018-12-12T19:05:38.644Z,72.27
2018-12-12T19:08:09.332Z,76.67
2018-12-12T19:10:40.713Z,65.97
2018-12-12T19:13:12.643Z,75.63
2018-12-12T19:15:43.240Z,64.73
2018-12-12T19:18:14.032Z,58.73
2018-12-12T19:20:44.874Z,57.80
2018-12-12T19:23:15.902Z,48.27
2018-12-12T19:25:46.723Z,52.20
2018-12-12T19:28:17.527Z,42.73
2018-12-12T19:30:48.371Z,44.30
2018-12-12T19:33:19.698Z,34.30
2018-12-12T19:35:50.144Z,61.03
2018-12-12T19:38:21.731Z,39.17
2018-12-12T19:40:52.390Z,38.40
2018-12-12T19:43:24.165Z,34.37
2018-12-12T19:45:55.040Z,19.67
2018-12-12T19:48:25.648Z,18.40
2018-12-12T19:50:56.171Z,32.53
2018-12-12T19:53:26.793Z,21.23
2018-12-12T19:55:57.453Z,13.90
2018-12-12T19:58:28.722Z,19.53
2018-12-12T20:00:59.257Z,34.00
2018-12-12T20:03:30.316Z,37.07
2018-12-12T20:06:01.002Z,56.57
2018-12-12T20:08:31.844Z,33.17
2018-12-12T20:11:02.053Z,105.90
2018-12-12T20:13:33.606Z,57.07
2018-12-12T20:16:04.398Z,110.37
2018-12-12T20:18:34.976Z,140.30
2018-12-12T20:21:05.398Z,68.03
2018-12-12T20:23:36.378Z,79.23
2018-12-12T20:26:06.796Z,68.97
2018-12-12T20:28:37.358Z,39.30
2018-12-12T20:31:07.899Z,45.77
2018-12-12T20:33:38.454Z,64.93
2018-12-12T20:36:09.091Z,63.43
2018-12-12T20:38:39.388Z,72.53
2018-12-12T20:41:09.719Z,54.43
2018-12-12T20:43:41.033Z,55.97
2018-12-12T20:46:11.357Z,60.30
2018-12-12T20:48:41.847Z,65.77
2018-12-12T20:51:12.452Z,47.97
2018-12-12T20:53:43.259Z,63.37
2018-12-12T20:56:13.802Z,65.90
2018-12-12T20:58:44.423Z,118.80
2018-12-12T21:01:14.845Z,83.63
2018-12-12T21:03:45.843Z,111.73
2018-12-12T21:06:16.555Z,88.50
2018-12-12T21:08:46.833Z,92.00
2018-12-12T21:11:17.156Z,125.73
2018-12-12T21:13:48.964Z,104.60
2018-12-12T21:16:19.422Z,97.47
2018-12-12T21:18:50.062Z,89.27
2018-12-12T21:21:20.988Z,73.03
2018-12-12T21:23:52.211Z,79.40
2018-12-12T21:26:23.233Z,72.73
2018-12-12T21:28:53.981Z,65.80
2018-12-12T21:31:24.717Z,71.70
2018-12-12T21:33:55.495Z,71.90
2018-12-12T21:36:26.053Z,78.97
2018-12-12T21:38:56.655Z,67.90
2018-12-12T21:41:27.298Z,72.03
2018-12-12T21:43:58.603Z,58.90
2018-12-12T21:46:28.902Z,51.30
2018-12-12T21:48:59.296Z,47.63
2018-12-12T21:51:29.742Z,41.67
2018-12-12T21:54:00.255Z,36.10
2018-12-12T21:56:30.872Z,46.77
2018-12-12T21:59:01.484Z,39.10
2018-12-12T22:01:31.736Z,31.93
2018-12-12T22:04:02.552Z,23.47
2018-12-12T22:06:33.082Z,42.37
2018-12-12T22:09:05.509Z,26.80
2018-12-12T22:11:36.004Z,20.83
2018-12-12T22:14:06.942Z,21.87
2018-12-12T22:16:37.575Z,26.47
2018-12-12T22:19:08.071Z,18.93
2018-12-12T22:21:38.402Z,46.23
2018-12-12T22:24:09.813Z,48.10
2018-12-12T22:26:40.370Z,37.30
2018-12-12T22:29:10.934Z,62.20
2018-12-12T22:31:41.593Z,37.00
2018-12-12T22:34:12.503Z,45.30
2018-12-12T22:36:43.041Z,44.23
2018-12-12T22:39:13.673Z,48.30
2018-12-12T22:41:44.478Z,36.87
2018-12-12T22:44:16.839Z,25.30
2018-12-12T22:46:47.156Z,26.27
2018-12-12T22:49:17.479Z,43.07
2018-12-12T22:51:47.824Z,25.83
2018-12-12T22:54:18.684Z,26.93
2018-12-12T22:56:48.720Z,25.33
2018-12-12T22:59:19.096Z,33.03
2018-12-12T23:01:49.229Z,22.63
2018-12-12T23:04:20.166Z,30.63
2018-12-12T23:06:50.421Z,39.23
2018-12-12T23:09:21.038Z,28.03
2018-12-12T23:11:51.620Z,28.43
2018-12-12T23:14:22.803Z,24.93
2018-12-12T23:16:53.306Z,31.73
2018-12-12T23:19:23.646Z,34.37
2018-12-12T23:21:54.057Z,15.90
2018-12-12T23:24:25.233Z,24.60
2018-12-12T23:26:55.963Z,26.30
2018-12-12T23:29:26.799Z,22.60
2018-12-12T23:31:57.498Z,27.13
2018-12-12T23:34:28.383Z,25.67
2018-12-12T23:36:58.683Z,10.80
2018-12-12T23:39:29.396Z,30.43
2018-12-12T23:41:59.967Z,16.50
2018-12-12T23:44:31.750Z,11.53
2018-12-12T23:47:02.298Z,13.33
2018-12-12T23:49:32.854Z,17.20
2018-12-12T23:52:03.240Z,14.90
2018-12-12T23:54:33.987Z,22.20
2018-12-12T23:57:04.561Z,23.67
2018-12-12T23:59:35.619Z,12.97
